Time;durP1;ratioP1;P1;durP2;ratioP2;P2;SDS_P1;SDS_P2;PMS_P1;PMS_P2;Temp;Humidity;BMP_temperature;BMP_pressure;BME280_temperature;BME280_humidity;BME280_pressure;Samples;Min_cycle;Max_cycle;Signal;HPM_P1;HPM_P2
2021/11/06 00:00:13;;;;;;;58.60;3.00;;;4.30;29.20;;;;;;5113092;28;20231;-70
2021/11/06 00:02:40;;;;;;;58.20;2.60;;;4.40;31.20;;;;;;5113389;28;20228;-70
2021/11/06 00:05:08;;;;;;;58.20;2.78;;;4.40;32.80;;;;;;5113177;28;20629;-69
2021/11/06 00:07:35;;;;;;;58.60;3.22;;;4.40;32.90;;;;;;5112973;28;20207;-69
2021/11/06 00:10:02;;;;;;;58.25;2.53;;;4.50;34.20;;;;;;5112894;28;20227;-69
2021/11/06 00:12:29;;;;;;;58.30;2.80;;;4.50;35.40;;;;;;5113177;28;20208;-69
2021/11/06 00:14:56;;;;;;;58.05;3.10;;;4.50;36.70;;;;;;5113082;28;20311;-69
2021/11/06 00:17:24;;;;;;;58.70;2.90;;;4.60;37.60;;;;;;5112820;28;20204;-69
2021/11/06 00:19:51;;;;;;;58.40;2.70;;;4.60;38.50;;;;;;5113075;27;20258;-69
2021/11/06 00:22:18;;;;;;;58.17;2.78;;;4.60;39.60;;;;;;5112729;28;20224;-69
2021/11/06 00:24:44;;;;;;;58.28;2.90;;;4.70;40.40;;;;;;5112851;28;20291;-69
2021/11/06 00:27:11;;;;;;;58.10;2.70;;;4.70;41.20;;;;;;5112558;28;20229;-69
2021/11/06 00:29:38;;;;;;;58.08;2.47;;;4.70;41.80;;;;;;5112733;28;20210;-69
2021/11/06 00:32:06;;;;;;;59.00;3.70;;;4.70;42.50;;;;;;5112691;28;20294;-70
2021/11/06 00:34:35;;;;;;;58.17;2.50;;;4.70;43.50;;;;;;5112611;28;20211;-70
2021/11/06 00:37:02;;;;;;;58.20;2.60;;;4.70;43.90;;;;;;5112141;28;20218;-70
2021/11/06 00:39:28;;;;;;;58.50;2.90;;;4.80;44.20;;;;;;5112790;28;20293;-70
2021/11/06 00:41:55;;;;;;;58.08;2.58;;;4.70;45.10;;;;;;5112502;28;20235;-70
2021/11/06 00:44:23;;;;;;;58.08;2.53;;;4.70;44.70;;;;;;5112602;28;20200;-70
2021/11/06 00:46:50;;;;;;;58.75;3.08;;;4.70;45.50;;;;;;5112257;28;20207;-70
2021/11/06 00:49:17;;;;;;;58.65;3.25;;;4.80;45.90;;;;;;5112514;28;20235;-70
2021/11/06 00:51:45;;;;;;;58.08;2.45;;;4.80;46.50;;;;;;5112146;28;20224;-70
2021/11/06 00:54:12;;;;;;;58.28;2.80;;;4.80;46.80;;;;;;5112555;28;20199;-70
2021/11/06 00:56:39;;;;;;;58.05;2.75;;;4.80;47.40;;;;;;5111968;28;20294;-70
2021/11/06 00:59:05;;;;;;;58.20;2.85;;;4.80;47.90;;;;;;5112458;28;20211;-70
2021/11/06 01:01:32;;;;;;;58.20;2.70;;;4.80;48.20;;;;;;5112066;28;20710;-70
2021/11/06 01:04:00;;;;;;;58.15;3.10;;;4.80;48.60;;;;;;5112230;28;20321;-70
2021/11/06 01:06:26;;;;;;;58.08;2.80;;;4.80;49.00;;;;;;5111773;28;20235;-70
2021/11/06 01:08:55;;;;;;;58.20;2.60;;;4.80;49.40;;;;;;5112355;28;20204;-70
2021/11/06 01:11:22;;;;;;;58.20;2.65;;;4.80;50.00;;;;;;5112035;28;20719;-70
2021/11/06 01:13:48;;;;;;;58.38;2.97;;;4.80;50.00;;;;;;5112385;28;20298;-70
2021/11/06 01:16:16;;;;;;;58.30;2.80;;;4.80;51.10;;;;;;5111730;28;20207;-70
2021/11/06 01:18:43;;;;;;;58.80;3.40;;;4.80;51.20;;;;;;5111991;28;20205;-70
2021/11/06 01:21:10;;;;;;;58.35;3.20;;;4.80;52.00;;;;;;5112196;28;20255;-70
2021/11/06 01:23:37;;;;;;;58.17;2.95;;;4.80;52.40;;;;;;5112155;28;20294;-70
2021/11/06 01:26:05;;;;;;;58.20;2.80;;;4.80;52.50;;;;;;5111744;28;20210;-69
2021/11/06 01:28:32;;;;;;;58.20;2.80;;;4.80;53.20;;;;;;5112082;28;20302;-69
2021/11/06 01:30:59;;;;;;;58.20;3.00;;;4.80;53.70;;;;;;5111923;28;20663;-69
2021/11/06 01:33:26;;;;;;;58.17;2.60;;;4.80;54.20;;;;;;5111754;28;20212;-69
2021/11/06 01:35:53;;;;;;;58.28;2.67;;;4.70;53.80;;;;;;5111952;28;20306;-69
2021/11/06 01:38:20;;;;;;;57.97;2.65;;;4.70;54.00;;;;;;5114024;28;20218;-69
2021/11/06 01:40:47;;;;;;;61.90;3.65;;;4.70;54.10;;;;;;5116456;28;20266;-69
2021/11/06 01:43:16;;;;;;;58.15;2.80;;;4.60;54.10;;;;;;5115876;28;20227;-70
2021/11/06 01:45:43;;;;;;;58.17;3.00;;;4.50;53.80;;;;;;5115525;28;20207;-68
2021/11/06 01:48:10;;;;;;;58.20;2.60;;;4.50;54.00;;;;;;5115745;28;20235;-68
2021/11/06 01:50:37;;;;;;;58.08;2.67;;;4.50;54.20;;;;;;5115961;28;20223;-68
2021/11/06 01:53:04;;;;;;;58.22;2.78;;;4.50;54.50;;;;;;5116096;28;20202;-68
2021/11/06 01:55:31;;;;;;;58.20;2.80;;;4.50;55.30;;;;;;5115329;28;20698;-70
2021/11/06 01:57:59;;;;;;;58.28;3.00;;;4.50;56.10;;;;;;5115684;28;20233;-70
2021/11/06 02:00:29;;;;;;;58.28;2.60;;;4.50;57.10;;;;;;5115493;28;20255;-70
2021/11/06 02:02:56;;;;;;;58.15;2.70;;;4.50;57.60;;;;;;5115771;28;20223;-70
2021/11/06 02:05:24;;;;;;;58.05;2.60;;;4.50;58.20;;;;;;5115289;28;20679;-70
2021/11/06 02:07:51;;;;;;;57.97;2.63;;;4.50;58.50;;;;;;5115575;28;20199;-70
2021/11/06 02:10:18;;;;;;;58.28;2.80;;;4.40;58.40;;;;;;5115007;28;20227;-70
2021/11/06 02:12:46;;;;;;;58.28;2.90;;;4.40;58.60;;;;;;5113957;28;20203;-70
2021/11/06 02:15:16;;;;;;;59.90;3.75;;;4.40;59.20;;;;;;5115609;28;20231;-70
2021/11/06 02:17:45;;;;;;;58.55;3.25;;;4.50;60.00;;;;;;5114931;28;20204;-70
2021/11/06 02:20:13;;;;;;;58.10;2.90;;;4.50;60.30;;;;;;5115281;28;20223;-70
2021/11/06 02:22:41;;;;;;;58.15;2.70;;;4.50;60.60;;;;;;5115205;28;20223;-70
2021/11/06 02:25:09;;;;;;;57.85;2.58;;;4.50;61.00;;;;;;5114902;27;20235;-70
2021/11/06 02:27:36;;;;;;;59.35;3.10;;;4.50;61.20;;;;;;5115122;28;20208;-70
2021/11/06 02:30:04;;;;;;;58.40;3.65;;;4.50;61.50;;;;;;5115130;27;20223;-70
2021/11/06 02:32:31;;;;;;;58.50;3.15;;;4.50;61.90;;;;;;5114907;28;20246;-70
2021/11/06 02:34:58;;;;;;;58.65;3.28;;;4.60;62.40;;;;;;5114869;28;20255;-70
2021/11/06 02:37:26;;;;;;;58.00;2.70;;;4.50;62.30;;;;;;5114573;28;20214;-70
2021/11/06 02:39:54;;;;;;;58.17;2.70;;;4.50;62.30;;;;;;5114678;28;20229;-70
2021/11/06 02:42:21;;;;;;;58.40;2.70;;;4.50;62.40;;;;;;5115004;28;20204;-70
2021/11/06 02:44:49;;;;;;;60.20;4.78;;;4.50;62.80;;;;;;5114630;28;20233;-70
2021/11/06 02:47:16;;;;;;;57.97;2.80;;;4.40;62.90;;;;;;5114635;28;20204;-70
2021/11/06 02:49:43;;;;;;;58.17;2.70;;;4.50;63.10;;;;;;5113182;28;20235;-70
2021/11/06 02:52:10;;;;;;;58.25;2.78;;;4.40;63.20;;;;;;5114478;28;20246;-70
2021/11/06 02:54:37;;;;;;;60.65;3.78;;;4.40;63.70;;;;;;5114767;28;20207;-70
2021/11/06 02:57:06;;;;;;;58.80;3.20;;;4.30;63.20;;;;;;5114222;28;20207;-69
2021/11/06 02:59:33;;;;;;;58.30;2.80;;;4.20;62.90;;;;;;5114372;28;20291;-70
2021/11/06 03:01:59;;;;;;;58.08;2.90;;;4.20;62.60;;;;;;5114464;28;20252;-70
2021/11/06 03:04:26;;;;;;;58.50;3.08;;;4.10;62.60;;;;;;5114303;28;20223;-70
2021/11/06 03:06:53;;;;;;;58.40;2.85;;;4.10;62.60;;;;;;5114159;28;20234;-70
2021/11/06 03:09:23;;;;;;;58.40;2.80;;;4.10;62.60;;;;;;5114452;28;20290;-70
2021/11/06 03:11:50;;;;;;;58.47;3.30;;;4.10;62.80;;;;;;5114318;28;20227;-70
2021/11/06 03:14:21;;;;;;;58.28;2.80;;;4.20;63.20;;;;;;5114474;28;20206;-70
2021/11/06 03:16:48;;;;;;;58.38;3.22;;;4.10;63.20;;;;;;5113870;28;20268;-70
2021/11/06 03:19:15;;;;;;;59.08;4.60;;;4.10;63.50;;;;;;5114059;28;20235;-70
2021/11/06 03:21:42;;;;;;;58.38;3.10;;;4.10;63.50;;;;;;5114226;28;20223;-70
2021/11/06 03:24:09;;;;;;;58.47;2.70;;;4.20;63.80;;;;;;5113997;28;20711;-70
2021/11/06 03:26:36;;;;;;;58.38;2.75;;;4.20;64.20;;;;;;5114061;28;20203;-70
2021/11/06 03:29:03;;;;;;;58.35;2.70;;;4.30;65.20;;;;;;5113950;28;20310;-70
2021/11/06 03:31:31;;;;;;;58.40;2.70;;;4.30;64.90;;;;;;5114035;27;20310;-70
2021/11/06 03:33:58;;;;;;;58.17;2.60;;;4.30;65.50;;;;;;5113947;28;20294;-70
2021/11/06 03:36:25;;;;;;;58.20;2.50;;;4.40;66.20;;;;;;5113727;28;20210;-70
2021/11/06 03:38:52;;;;;;;57.97;2.63;;;4.40;66.70;;;;;;5113623;28;20301;-70
2021/11/06 03:41:19;;;;;;;57.97;2.70;;;4.40;67.00;;;;;;5113559;28;20733;-70
2021/11/06 03:43:46;;;;;;;58.35;2.90;;;4.50;67.60;;;;;;5113630;28;20224;-70
2021/11/06 03:46:13;;;;;;;58.00;2.67;;;4.50;67.80;;;;;;5113230;28;20204;-70
2021/11/06 03:48:42;;;;;;;60.35;4.68;;;4.50;68.10;;;;;;5113475;28;20231;-70
2021/11/06 03:51:08;;;;;;;57.97;2.65;;;4.50;68.90;;;;;;5113500;28;20226;-70
2021/11/06 03:53:35;;;;;;;58.28;3.10;;;4.60;69.00;;;;;;5113621;28;20227;-70
2021/11/06 03:56:03;;;;;;;58.05;2.65;;;4.60;69.40;;;;;;5113146;28;20592;-70
2021/11/06 03:58:30;;;;;;;58.45;3.80;;;4.60;70.10;;;;;;5113271;28;20299;-70
2021/11/06 04:00:57;;;;;;;58.08;3.00;;;4.60;70.10;;;;;;5112713;28;20220;-70
2021/11/06 04:03:23;;;;;;;58.08;2.65;;;4.60;70.50;;;;;;5113306;28;20306;-70
2021/11/06 04:05:52;;;;;;;57.80;2.70;;;4.60;70.50;;;;;;5113010;28;20242;-70
2021/11/06 04:08:19;;;;;;;57.85;2.40;;;4.60;70.60;;;;;;5113060;28;20199;-70
2021/11/06 04:10:46;;;;;;;58.20;3.00;;;4.60;70.90;;;;;;5113086;28;20310;-70
2021/11/06 04:13:14;;;;;;;58.20;2.85;;;4.50;70.50;;;;;;5113036;28;20290;-70
2021/11/06 04:15:42;;;;;;;57.97;2.80;;;4.50;70.50;;;;;;5112648;28;20215;-70
2021/11/06 04:18:09;;;;;;;58.20;2.60;;;4.50;70.50;;;;;;5113021;28;20208;-70
2021/11/06 04:20:36;;;;;;;58.05;3.00;;;4.50;70.70;;;;;;5112843;28;20579;-70
2021/11/06 04:23:04;;;;;;;58.00;2.70;;;4.50;70.90;;;;;;5113002;28;20287;-70
2021/11/06 04:25:31;;;;;;;58.28;3.20;;;4.50;71.20;;;;;;5112518;28;20298;-70
2021/11/06 04:27:58;;;;;;;58.40;3.00;;;4.50;71.20;;;;;;5112839;28;20294;-70
2021/11/06 04:30:25;;;;;;;58.08;2.90;;;4.50;71.40;;;;;;5112891;28;20251;-70
2021/11/06 04:32:52;;;;;;;58.10;2.60;;;4.60;71.70;;;;;;5112895;28;20286;-70
2021/11/06 04:35:19;;;;;;;58.28;2.67;;;4.60;71.90;;;;;;5112509;28;20237;-70
2021/11/06 04:37:46;;;;;;;58.00;2.65;;;4.50;72.10;;;;;;5112407;28;20209;-70
2021/11/06 04:40:14;;;;;;;58.15;2.80;;;4.50;71.90;;;;;;5112508;28;20310;-70
2021/11/06 04:42:43;;;;;;;57.95;2.60;;;4.60;72.30;;;;;;5112830;28;20264;-70
2021/11/06 04:45:11;;;;;;;58.13;2.60;;;4.60;72.10;;;;;;5112567;28;20259;-70
2021/11/06 04:47:38;;;;;;;58.05;2.53;;;4.60;72.00;;;;;;5112451;28;20290;-70
2021/11/06 04:50:08;;;;;;;58.17;2.97;;;4.60;72.10;;;;;;5112476;28;20733;-70
2021/11/06 04:52:35;;;;;;;58.90;3.72;;;4.50;71.60;;;;;;5112307;28;20203;-70
2021/11/06 04:55:03;;;;;;;58.03;2.60;;;4.50;71.60;;;;;;5112186;28;20203;-69
2021/11/06 04:57:31;;;;;;;58.40;3.05;;;4.50;71.60;;;;;;5112681;28;20576;-70
2021/11/06 04:59:58;;;;;;;58.58;3.72;;;4.50;71.40;;;;;;5112401;28;20254;-70
2021/11/06 05:02:25;;;;;;;58.70;3.38;;;4.50;71.20;;;;;;5112801;28;20203;-69
2021/11/06 05:04:52;;;;;;;58.17;3.05;;;4.50;71.00;;;;;;5112323;28;20319;-70
2021/11/06 05:07:19;;;;;;;58.08;2.72;;;4.40;70.80;;;;;;5111906;28;20203;-69
2021/11/06 05:09:46;;;;;;;58.28;2.60;;;4.40;70.60;;;;;;5112462;28;20339;-70
2021/11/06 05:12:13;;;;;;;57.88;2.60;;;4.40;70.40;;;;;;5111760;28;20250;-70
2021/11/06 05:14:41;;;;;;;58.17;2.60;;;4.40;70.40;;;;;;5112220;28;20196;-70
2021/11/06 05:17:08;;;;;;;58.20;2.60;;;4.40;70.50;;;;;;5112268;28;20294;-70
2021/11/06 05:19:36;;;;;;;58.28;2.90;;;4.40;70.50;;;;;;5112041;28;20199;-70
2021/11/06 05:22:04;;;;;;;58.28;2.78;;;4.40;70.80;;;;;;5111920;28;20298;-70
2021/11/06 05:24:32;;;;;;;59.83;3.55;;;4.50;71.00;;;;;;5111886;28;20227;-70
2021/11/06 05:26:59;;;;;;;57.97;2.80;;;4.40;71.00;;;;;;5111801;28;20204;-70
2021/11/06 05:29:26;;;;;;;57.97;2.50;;;4.50;71.20;;;;;;5112153;28;20207;-70
2021/11/06 05:31:55;;;;;;;58.17;2.95;;;4.50;71.40;;;;;;5112011;28;20707;-70
2021/11/06 05:34:22;;;;;;;58.20;2.70;;;4.50;71.30;;;;;;5111745;28;20208;-70
2021/11/06 05:36:49;;;;;;;58.10;2.85;;;4.50;71.40;;;;;;5111482;28;20314;-70
2021/11/06 05:39:15;;;;;;;57.88;2.60;;;4.60;71.80;;;;;;5111790;28;20280;-70
2021/11/06 05:41:43;;;;;;;58.90;3.47;;;4.60;71.90;;;;;;5111964;28;20593;-70
2021/11/06 05:44:10;;;;;;;58.50;3.25;;;4.60;71.90;;;;;;5111900;28;20262;-70
2021/11/06 05:46:37;;;;;;;61.10;3.15;;;4.60;72.00;;;;;;5111653;28;20308;-70
2021/11/06 05:49:05;;;;;;;58.15;2.80;;;4.60;72.00;;;;;;5111879;28;20239;-70
2021/11/06 05:51:32;;;;;;;58.05;2.80;;;4.60;72.00;;;;;;5111929;28;20332;-70
2021/11/06 05:53:59;;;;;;;58.17;2.60;;;4.60;72.00;;;;;;5111985;28;20343;-70
2021/11/06 05:56:25;;;;;;;58.28;3.35;;;4.60;72.20;;;;;;5111554;28;20294;-70
2021/11/06 05:58:52;;;;;;;58.00;2.50;;;4.60;72.40;;;;;;5111896;28;20261;-70
2021/11/06 06:01:19;;;;;;;57.90;2.80;;;4.70;72.50;;;;;;5111621;28;20223;-70
2021/11/06 06:03:46;;;;;;;58.10;2.80;;;4.60;72.60;;;;;;5111540;28;20239;-70
2021/11/06 06:06:14;;;;;;;58.40;2.85;;;4.60;72.80;;;;;;5111470;28;20246;-69
2021/11/06 06:08:41;;;;;;;58.20;2.70;;;4.60;72.50;;;;;;5111859;28;20250;-69
2021/11/06 06:11:08;;;;;;;58.17;3.00;;;4.60;72.40;;;;;;5111597;28;20259;-69
2021/11/06 06:13:35;;;;;;;58.35;2.83;;;4.60;72.30;;;;;;5111598;28;20210;-70
2021/11/06 06:16:02;;;;;;;58.10;2.70;;;4.60;72.30;;;;;;5111484;28;20294;-70
2021/11/06 06:18:29;;;;;;;58.40;3.03;;;4.60;72.30;;;;;;5111425;28;20261;-69
2021/11/06 06:20:55;;;;;;;58.28;3.00;;;4.60;71.70;;;;;;5111629;28;20686;-69
2021/11/06 06:23:24;;;;;;;58.17;2.80;;;4.60;71.80;;;;;;5112181;28;20207;-69
2021/11/06 06:25:51;;;;;;;58.40;3.15;;;4.60;71.70;;;;;;5114869;28;20310;-70
2021/11/06 06:28:18;;;;;;;57.97;2.80;;;4.60;71.20;;;;;;5115188;28;20230;-70
2021/11/06 06:30:45;;;;;;;58.20;2.80;;;4.50;71.00;;;;;;5115010;28;20259;-70
2021/11/06 06:33:12;;;;;;;57.97;2.67;;;4.60;71.10;;;;;;5115009;28;20214;-69
2021/11/06 06:35:38;;;;;;;58.28;2.70;;;4.60;71.00;;;;;;5114890;28;20242;-69
2021/11/06 06:38:05;;;;;;;58.25;2.90;;;4.60;71.00;;;;;;5115181;28;20206;-70
2021/11/06 06:40:34;;;;;;;58.13;3.10;;;4.60;71.00;;;;;;5115412;28;20314;-70
2021/11/06 06:43:00;;;;;;;59.08;3.30;;;4.60;71.30;;;;;;5115264;28;20738;-70
2021/11/06 06:45:27;;;;;;;58.08;2.67;;;4.70;71.60;;;;;;5114251;28;20227;-70
2021/11/06 06:47:54;;;;;;;58.25;2.80;;;4.70;71.50;;;;;;5114701;28;20686;-70
2021/11/06 06:50:22;;;;;;;60.58;3.90;;;4.70;71.50;;;;;;5114698;28;20234;-70
2021/11/06 06:52:49;;;;;;;58.28;2.80;;;4.70;71.60;;;;;;5114830;28;20207;-70
2021/11/06 06:55:16;;;;;;;58.08;2.72;;;4.70;71.50;;;;;;5114640;28;20227;-70
2021/11/06 06:57:44;;;;;;;58.28;2.83;;;4.70;71.10;;;;;;5114353;28;20205;-70
2021/11/06 07:00:13;;;;;;;58.08;2.90;;;4.70;70.60;;;;;;5114672;28;20322;-70
2021/11/06 07:02:40;;;;;;;58.47;3.30;;;4.70;70.60;;;;;;5114428;28;20290;-70
2021/11/06 07:05:10;;;;;;;58.20;2.80;;;4.70;70.60;;;;;;5114345;28;20314;-70
2021/11/06 07:07:37;;;;;;;58.88;2.92;;;4.80;70.40;;;;;;5114168;28;20290;-70
2021/11/06 07:10:04;;;;;;;58.58;3.10;;;4.80;70.00;;;;;;5114300;28;20230;-68
2021/11/06 07:12:33;;;;;;;58.20;2.90;;;4.80;69.50;;;;;;5114200;28;20226;-69
2021/11/06 07:15:01;;;;;;;58.17;2.70;;;4.80;67.90;;;;;;5114343;28;20204;-70
2021/11/06 07:17:28;;;;;;;58.33;3.00;;;4.70;65.20;;;;;;5114216;28;20203;-70
2021/11/06 07:19:55;;;;;;;58.10;2.85;;;4.70;63.60;;;;;;5114158;28;20219;-69
2021/11/06 07:22:21;;;;;;;58.28;2.80;;;4.60;61.50;;;;;;5114703;28;20235;-69
2021/11/06 07:24:48;;;;;;;58.28;3.10;;;4.60;60.10;;;;;;5114208;28;20227;-69
2021/11/06 07:27:15;;;;;;;58.10;2.90;;;4.60;59.10;;;;;;5113666;28;20637;-69
2021/11/06 07:29:42;;;;;;;58.20;2.70;;;4.60;57.40;;;;;;5113957;28;20246;-69
2021/11/06 07:32:10;;;;;;;58.50;2.88;;;4.60;57.20;;;;;;5114174;28;20549;-69
2021/11/06 07:34:37;;;;;;;58.33;2.65;;;4.70;57.50;;;;;;5113879;28;20683;-70
2021/11/06 07:37:06;;;;;;;57.95;2.60;;;4.70;55.90;;;;;;5113349;27;20296;-72
2021/11/06 07:39:33;;;;;;;58.10;2.47;;;4.70;55.10;;;;;;5133649;27;20230;-72
2021/11/06 07:42:00;;;;;;;58.28;2.80;;;4.70;55.20;;;;;;5133960;27;20271;-70
2021/11/06 07:44:27;;;;;;;58.30;2.80;;;4.80;55.70;;;;;;5134281;27;20309;-70
2021/11/06 07:46:54;;;;;;;57.95;3.00;;;4.80;54.10;;;;;;5132210;27;20248;-70
2021/11/06 07:49:23;;;;;;;58.33;3.38;;;4.80;51.60;;;;;;5133352;27;20655;-70
2021/11/06 07:51:50;;;;;;;58.30;3.70;;;4.80;49.20;;;;;;5133663;27;20309;-70
2021/11/06 07:54:17;;;;;;;58.28;2.90;;;4.80;44.10;;;;;;5133558;27;20293;-70
2021/11/06 07:56:44;;;;;;;58.10;2.85;;;4.80;40.60;;;;;;5133177;27;20238;-70
2021/11/06 07:59:10;;;;;;;58.30;2.80;;;4.70;36.00;;;;;;5134097;27;20237;-70
2021/11/06 08:01:37;;;;;;;58.20;2.80;;;4.70;33.50;;;;;;5133802;27;20310;-70
2021/11/06 08:04:05;;;;;;;58.17;2.50;;;4.70;33.20;;;;;;5133779;27;20649;-70
2021/11/06 08:06:35;;;;;;;58.70;2.90;;;4.80;30.90;;;;;;5133394;27;20230;-70
2021/11/06 08:09:01;;;;;;;58.40;2.75;;;4.80;26.40;;;;;;5133725;27;20263;-71
2021/11/06 08:11:28;;;;;;;58.30;2.60;;;4.80;22.90;;;;;;5133690;27;20580;-71
2021/11/06 08:13:55;;;;;;;58.10;2.70;;;4.80;18.10;;;;;;5133429;27;20364;-70
2021/11/06 08:16:22;;;;;;;58.08;2.60;;;4.80;16.70;;;;;;5132971;27;20201;-71
2021/11/06 08:18:50;;;;;;;58.67;3.15;;;4.80;15.10;;;;;;5131672;27;20299;-71
2021/11/06 08:21:17;;;;;;;58.08;2.80;;;4.80;13.30;;;;;;5133224;27;20226;-71
2021/11/06 08:23:45;;;;;;;58.50;3.00;;;4.80;10.20;;;;;;5133641;27;20666;-70
2021/11/06 08:26:12;;;;;;;58.30;2.80;;;4.80;11.70;;;;;;5133069;27;20218;-70
2021/11/06 08:28:39;;;;;;;58.20;2.80;;;4.80;8.80;;;;;;5133012;27;20206;-70
2021/11/06 08:31:06;;;;;;;58.28;2.90;;;4.80;5.00;;;;;;5133469;27;20233;-70
2021/11/06 08:33:33;;;;;;;60.00;3.95;;;4.70;2.70;;;;;;5133516;27;20250;-70
2021/11/06 08:36:00;;;;;;;58.30;2.90;;;4.70;3.10;;;;;;5132819;27;20230;-70
2021/11/06 08:38:28;;;;;;;58.28;2.80;;;4.80;4.30;;;;;;5133092;27;20759;-71
2021/11/06 08:40:57;;;;;;;58.28;2.65;;;4.80;3.50;;;;;;5133388;27;20313;-71
2021/11/06 08:43:26;;;;;;;58.10;2.70;;;4.90;9.30;;;;;;5132760;27;20286;-70
2021/11/06 08:45:53;;;;;;;62.50;3.65;;;5.00;15.30;;;;;;5132163;27;20254;-70
2021/11/06 08:48:20;;;;;;;57.97;2.70;;;5.20;16.60;;;;;;5132619;27;20198;-70
2021/11/06 08:50:47;;;;;;;57.97;2.83;;;5.20;12.20;;;;;;5132718;27;20234;-70
2021/11/06 08:53:15;;;;;;;58.10;2.67;;;5.30;13.70;;;;;;5129815;27;20260;-70
2021/11/06 08:55:42;;;;;;;58.08;2.50;;;5.30;13.60;;;;;;5130958;27;20666;-70
2021/11/06 08:58:10;;;;;;;58.08;2.90;;;5.40;13.60;;;;;;5131667;27;20194;-70
2021/11/06 09:00:40;;;;;;;57.88;2.47;;;5.40;12.90;;;;;;5132339;27;20313;-70
2021/11/06 09:03:09;;;;;;;60.00;3.00;;;5.50;13.40;;;;;;5132246;27;20234;-70
2021/11/06 09:05:37;;;;;;;58.20;2.90;;;5.60;13.30;;;;;;5132048;27;20275;-70
2021/11/06 09:08:04;;;;;;;58.20;2.90;;;5.70;12.70;;;;;;5132193;27;20202;-70
2021/11/06 09:10:31;;;;;;;59.85;3.45;;;5.70;11.30;;;;;;5132335;27;20309;-70
2021/11/06 09:12:58;;;;;;;60.63;3.65;;;5.80;10.20;;;;;;5132282;27;20294;-70
2021/11/06 09:15:26;;;;;;;58.08;2.83;;;5.80;7.40;;;;;;5131927;27;20298;-70
2021/11/06 09:17:54;;;;;;;57.88;2.65;;;5.80;5.70;;;;;;5132350;27;20606;-70
2021/11/06 09:20:21;;;;;;;57.85;2.75;;;5.90;7.30;;;;;;5132069;27;20757;-70
2021/11/06 09:22:50;;;;;;;58.00;2.80;;;5.90;5.80;;;;;;5130771;27;20508;-70
2021/11/06 09:25:17;;;;;;;58.03;2.65;;;5.90;1.00;;;;;;5132342;27;20219;-70
2021/11/06 09:27:44;;;;;;;58.30;3.08;;;6.00;1.00;;;;;;5132427;27;20234;-70
2021/11/06 09:30:12;;;;;;;58.42;3.25;;;6.00;1.00;;;;;;5131889;27;20361;-70
2021/11/06 09:32:41;;;;;;;58.63;3.15;;;6.00;1.00;;;;;;5132140;27;20224;-70
2021/11/06 09:35:08;;;;;;;58.08;3.00;;;5.90;1.00;;;;;;5132045;27;20207;-70
2021/11/06 09:37:35;;;;;;;58.10;2.60;;;5.90;1.00;;;;;;5131744;27;20207;-70
2021/11/06 09:40:06;;;;;;;58.20;2.78;;;5.90;1.00;;;;;;5132018;27;20309;-70
2021/11/06 09:42:34;;;;;;;58.72;3.65;;;6.00;1.00;;;;;;5132585;27;20199;-71
2021/11/06 09:45:01;;;;;;;58.15;2.67;;;6.00;1.00;;;;;;5131822;27;20276;-71
2021/11/06 09:47:28;;;;;;;58.58;3.80;;;6.00;1.00;;;;;;5132430;27;20199;-71
2021/11/06 09:49:56;;;;;;;58.67;3.45;;;6.10;1.00;;;;;;5132434;27;20226;-71
2021/11/06 09:52:23;;;;;;;58.33;2.92;;;6.20;1.00;;;;;;5132338;27;20203;-70
2021/11/06 09:54:50;;;;;;;58.28;3.00;;;6.20;1.00;;;;;;5130945;27;20302;-71
2021/11/06 09:57:17;;;;;;;57.95;2.70;;;6.20;1.00;;;;;;5131580;27;20213;-71
2021/11/06 09:59:44;;;;;;;58.20;2.90;;;6.30;1.00;;;;;;5134257;27;20241;-70
2021/11/06 10:02:11;;;;;;;58.00;2.60;;;6.40;1.00;;;;;;5136063;27;20214;-70
2021/11/06 10:04:38;;;;;;;58.08;2.70;;;6.40;1.00;;;;;;5135583;27;20203;-70
2021/11/06 10:07:18;;;;;;;58.10;3.15;;;6.50;1.00;;;;;;5135922;27;20226;-70
2021/11/06 10:09:59;;;;;;;58.38;2.95;;;6.50;1.00;;;;;;5135907;27;20202;-70
2021/11/06 10:12:27;;;;;;;57.97;2.50;;;6.60;1.00;;;;;;5136127;27;20290;-71
2021/11/06 10:15:07;;;;;;;57.97;2.60;;;6.60;1.00;;;;;;5135896;27;20238;-71
2021/11/06 10:17:35;;;;;;;58.17;2.70;;;6.70;1.00;;;;;;5135556;27;20203;-70
2021/11/06 10:20:28;;;;;;;58.60;3.20;;;6.60;1.00;;;;;;5135321;27;20317;-71
2021/11/06 10:22:59;;;;;;;58.10;2.80;;;6.60;1.00;;;;;;5135701;27;20213;-71
2021/11/06 10:25:27;;;;;;;57.97;2.70;;;6.70;1.00;;;;;;5133213;27;20314;-71
2021/11/06 10:27:56;;;;;;;57.78;2.63;;;6.80;1.00;;;;;;5135826;27;20207;-71
2021/11/06 10:30:27;;;;;;;58.17;2.67;;;6.70;1.00;;;;;;5135843;27;20651;-71
2021/11/06 10:33:00;;;;;;;58.20;3.20;;;6.60;1.00;;;;;;5135841;27;20209;-71
2021/11/06 10:35:29;;;;;;;57.95;2.75;;;6.60;1.00;;;;;;5135209;27;20233;-70
2021/11/06 10:38:04;;;;;;;58.40;3.20;;;6.70;1.00;;;;;;5135130;27;20234;-71
2021/11/06 10:40:35;;;;;;;58.28;2.75;;;6.80;1.00;;;;;;5134804;27;20309;-71
2021/11/06 10:43:04;;;;;;;58.10;2.70;;;6.90;1.00;;;;;;5135001;27;20293;-71
2021/11/06 10:45:32;;;;;;;58.15;3.25;;;7.00;1.00;;;;;;5134770;27;20773;-71
2021/11/06 10:48:05;;;;;;;58.15;2.60;;;7.00;1.00;;;;;;5135416;27;20290;-71
2021/11/06 10:50:47;;;;;;;58.10;2.63;;;7.10;1.00;;;;;;5135440;27;20321;-71
2021/11/06 10:53:32;;;;;;;58.08;2.72;;;7.20;1.00;;;;;;5134888;27;20290;-71
2021/11/06 10:56:00;;;;;;;57.85;2.65;;;7.30;1.00;;;;;;5134750;27;20294;-70
2021/11/06 10:58:29;;;;;;;58.40;3.67;;;7.20;1.00;;;;;;5132727;27;20303;-70
2021/11/06 11:00:58;;;;;;;58.20;3.65;;;7.20;1.00;;;;;;5134466;27;20227;-71
2021/11/06 11:03:27;;;;;;;57.97;3.00;;;7.30;1.00;;;;;;5134640;27;20209;-71
2021/11/06 11:05:56;;;;;;;58.00;2.87;;;7.30;1.00;;;;;;5134359;27;20314;-70
2021/11/06 11:08:24;;;;;;;58.08;2.90;;;7.40;1.00;;;;;;5134904;27;20480;-71
2021/11/06 11:10:51;;;;;;;58.60;4.00;;;7.60;1.00;;;;;;5133674;27;20318;-70
2021/11/06 11:13:20;;;;;;;57.87;2.83;;;7.70;1.00;;;;;;5134624;27;20296;-71
2021/11/06 11:15:51;;;;;;;57.97;2.90;;;7.80;1.00;;;;;;5134510;27;20527;-71
2021/11/06 11:18:32;;;;;;;60.10;4.53;;;7.80;1.00;;;;;;5134325;27;20211;-71
2021/11/06 11:21:11;;;;;;;57.73;2.70;;;7.80;1.00;;;;;;5134126;27;20797;-68
2021/11/06 11:23:39;;;;;;;57.87;2.73;;;7.80;1.00;;;;;;5134296;27;20451;-68
2021/11/06 11:26:07;;;;;;;58.17;3.00;;;7.80;1.00;;;;;;5133909;27;20477;-68
2021/11/06 11:28:33;;;;;;;57.85;2.80;;;7.90;1.00;;;;;;5132986;27;20532;-70
2021/11/06 11:31:00;;;;;;;58.40;2.90;;;8.00;1.00;;;;;;5134144;27;20255;-71
2021/11/06 11:33:27;;;;;;;58.00;2.37;;;8.00;1.00;;;;;;5134148;27;20243;-71
2021/11/06 11:35:55;;;;;;;57.80;2.80;;;8.00;1.00;;;;;;5133710;27;20532;-70
2021/11/06 11:38:23;;;;;;;57.63;2.50;;;8.00;1.00;;;;;;5133943;27;20312;-71
2021/11/06 11:41:17;;;;;;;57.67;2.70;;;8.00;1.00;;;;;;5133507;27;20508;-71
2021/11/06 11:43:56;;;;;;;57.80;2.70;;;7.90;1.00;;;;;;5133444;27;20468;-71
2021/11/06 11:46:34;;;;;;;58.00;2.53;;;7.90;1.00;;;;;;5133194;27;20470;-71
2021/11/06 11:49:02;;;;;;;57.87;2.97;;;8.00;1.00;;;;;;5133286;27;20449;-70
2021/11/06 11:51:30;;;;;;;58.10;2.70;;;7.90;1.00;;;;;;5133371;27;20496;-70
2021/11/06 11:54:02;;;;;;;57.97;2.67;;;7.90;1.00;;;;;;5133329;27;20450;-70
2021/11/06 11:56:32;;;;;;;58.60;3.33;;;8.00;1.00;;;;;;5133695;27;20211;-70
2021/11/06 11:59:00;;;;;;;57.90;2.80;;;8.10;1.00;;;;;;5133505;27;20441;-70
2021/11/06 12:01:27;;;;;;;58.07;2.63;;;8.20;1.00;;;;;;5132276;27;20476;-70
2021/11/06 12:03:56;;;;;;;57.90;2.90;;;8.40;1.00;;;;;;5133230;27;20483;-68
2021/11/06 12:06:29;;;;;;;58.10;3.00;;;8.50;1.00;;;;;;5132532;27;20506;-70
2021/11/06 12:08:59;;;;;;;57.88;2.65;;;8.50;1.00;;;;;;5133870;27;20426;-70
2021/11/06 12:11:35;;;;;;;57.97;3.00;;;8.40;1.00;;;;;;5133657;27;20319;-70
2021/11/06 12:14:17;;;;;;;58.20;3.25;;;8.30;1.00;;;;;;5133402;27;20442;-70
2021/11/06 12:16:47;;;;;;;58.10;3.10;;;8.20;1.00;;;;;;5133058;27;20200;-70
2021/11/06 12:19:37;;;;;;;58.58;3.38;;;8.40;1.00;;;;;;5132832;27;20446;-70
2021/11/06 12:22:10;;;;;;;57.90;2.70;;;8.50;1.00;;;;;;5133189;27;20208;-70
2021/11/06 12:24:37;;;;;;;59.30;3.40;;;8.70;1.00;;;;;;5133523;27;20449;-70
2021/11/06 12:27:08;;;;;;;58.23;3.17;;;8.80;1.00;;;;;;5132707;27;20478;-70
2021/11/06 12:29:52;;;;;;;59.10;3.73;;;9.10;1.00;;;;;;5133011;27;20953;-69
2021/11/06 12:32:21;;;;;;;57.83;2.70;;;9.30;1.00;;;;;;5133342;27;20774;-69
2021/11/06 12:34:49;;;;;;;57.90;2.97;;;9.60;1.00;;;;;;5130984;27;20459;-68
2021/11/06 12:37:48;;;;;;;58.20;3.17;;;9.90;1.00;;;;;;5132624;27;20507;-68
2021/11/06 12:40:22;;;;;;;58.17;3.67;;;10.30;1.00;;;;;;5132459;27;20548;-68
2021/11/06 12:43:20;;;;;;;58.40;2.90;;;10.40;1.00;;;;;;5133064;27;20773;-68
2021/11/06 12:45:49;;;;;;;58.20;3.07;;;10.40;1.00;;;;;;5132271;27;20951;-68
2021/11/06 12:48:17;;;;;;;58.87;3.97;;;10.30;1.00;;;;;;5132633;27;20819;-68
2021/11/06 12:50:47;;;;;;;58.17;3.07;;;10.50;1.00;;;;;;5132817;27;20982;-69
2021/11/06 12:53:24;;;;;;;58.20;3.50;;;11.10;1.00;;;;;;5133059;27;20530;-69
2021/11/06 12:55:59;;;;;;;59.90;3.50;;;11.70;1.00;;;;;;5131908;27;20919;-70